sensor_id;sensor_type;location;lat;lon;timestamp;temperature;humidity
9544;DHT22;30418;51.45933468;7.33152330;2022-07-10T00:03:14;21.10;48.50
9544;DHT22;30418;51.45933468;7.33152330;2022-07-10T00:07:18;21.00;48.60
9544;DHT22;30418;51.45933468;7.33152330;2022-07-10T00:10:47;21.00;48.60
9544;DHT22;30418;51.45933468;7.33152330;2022-07-10T00:14:33;20.90;48.70
9544;DHT22;30418;51.45933468;7.33152330;2022-07-10T00:18:15;20.90;48.80
9544;DHT22;30418;51.45933468;7.33152330;2022-07-10T00:21:30;20.90;48.80
9544;DHT22;30418;51.45933468;7.33152330;2022-07-10T00:24:59;20.80;48.70
9544;DHT22;30418;51.45933468;7.33152330;2022-07-10T00:28:41;20.80;48.60
9544;DHT22;30418;51.45933468;7.33152330;2022-07-10T00:32:34;20.80;48.60
9544;DHT22;30418;51.45933468;7.33152330;2022-07-10T00:36:40;20.70;48.60
9544;DHT22;30418;51.45933468;7.33152330;2022-07-10T00:40:30;20.60;48.60
9544;DHT22;30418;51.45933468;7.33152330;2022-07-10T00:44:10;20.60;48.60
9544;DHT22;30418;51.45933468;7.33152330;2022-07-10T00:47:50;20.60;48.70
9544;DHT22;30418;51.45933468;7.33152330;2022-07-10T00:50:55;20.50;48.70
9544;DHT22;30418;51.45933468;7.33152330;2022-07-10T00:54:49;20.50;48.80
9544;DHT22;30418;51.45933468;7.33152330;2022-07-10T00:58:46;20.40;49.00
9544;DHT22;30418;51.45933468;7.33152330;2022-07-10T01:02:39;20.40;49.00
9544;DHT22;30418;51.45933468;7.33152330;2022-07-10T01:06:22;20.30;49.10
9544;DHT22;30418;51.45933468;7.33152330;2022-07-10T01:14:49;20.30;49.20
9544;DHT22;30418;51.45933468;7.33152330;2022-07-10T01:19:10;20.30;49.40
9544;DHT22;30418;51.45933468;7.33152330;2022-07-10T01:42:39;20.20;49.60
9544;DHT22;30418;51.45933468;7.33152330;2022-07-10T01:47:05;20.10;49.60
9544;DHT22;30418;51.45933468;7.33152330;2022-07-10T01:51:02;20.10;49.60
9544;DHT22;30418;51.45933468;7.33152330;2022-07-10T02:13:21;20.00;50.10
9544;DHT22;30418;51.45933468;7.33152330;2022-07-10T02:17:42;20.00;50.10
9544;DHT22;30418;51.45933468;7.33152330;2022-07-10T02:26:41;20.00;50.10
9544;DHT22;30418;51.45933468;7.33152330;2022-07-10T03:14:16;19.70;50.80
9544;DHT22;30418;51.45933468;7.33152330;2022-07-10T03:18:54;19.60;50.80
9544;DHT22;30418;51.45933468;7.33152330;2022-07-10T03:23:15;19.60;50.80
9544;DHT22;30418;51.45933468;7.33152330;2022-07-10T03:27:28;19.60;50.60
9544;DHT22;30418;51.45933468;7.33152330;2022-07-10T03:32:14;19.60;50.90
9544;DHT22;30418;51.45933468;7.33152330;2022-07-10T03:36:36;19.60;51.00
9544;DHT22;30418;51.45933468;7.33152330;2022-07-10T03:41:01;19.50;51.00
9544;DHT22;30418;51.45933468;7.33152330;2022-07-10T04:07:55;19.30;51.20
9544;DHT22;30418;51.45933468;7.33152330;2022-07-10T04:11:55;19.30;51.40
9544;DHT22;30418;51.45933468;7.33152330;2022-07-10T04:15:50;19.30;51.50
9544;DHT22;30418;51.45933468;7.33152330;2022-07-10T04:20:12;19.30;51.40
9544;DHT22;30418;51.45933468;7.33152330;2022-07-10T04:34:12;19.30;51.70
9544;DHT22;30418;51.45933468;7.33152330;2022-07-10T04:38:35;19.30;51.80
9544;DHT22;30418;51.45933468;7.33152330;2022-07-10T05:21:53;19.40;52.00
9544;DHT22;30418;51.45933468;7.33152330;2022-07-10T05:25:50;19.40;51.80
9544;DHT22;30418;51.45933468;7.33152330;2022-07-10T05:29:40;19.40;51.80
9544;DHT22;30418;51.45933468;7.33152330;2022-07-10T05:51:25;19.40;52.10
9544;DHT22;30418;51.45933468;7.33152330;2022-07-10T05:59:55;19.40;52.00
9544;DHT22;30418;51.45933468;7.33152330;2022-07-10T06:12:37;19.40;52.10
9544;DHT22;30418;51.45933468;7.33152330;2022-07-10T06:16:44;19.40;51.90
9544;DHT22;30418;51.45933468;7.33152330;2022-07-10T06:20:36;19.40;52.10
9544;DHT22;30418;51.45933468;7.33152330;2022-07-10T06:29:47;19.40;52.10
9544;DHT22;30418;51.45933468;7.33152330;2022-07-10T06:43:06;19.50;52.10
9544;DHT22;30418;51.45933468;7.33152330;2022-07-10T06:47:28;19.60;52.10
9544;DHT22;30418;51.45933468;7.33152330;2022-07-10T06:51:39;19.60;52.00
9544;DHT22;30418;51.45933468;7.33152330;2022-07-10T06:55:15;19.70;51.90
9544;DHT22;30418;51.45933468;7.33152330;2022-07-10T06:59:37;19.70;51.80
9544;DHT22;30418;51.45933468;7.33152330;2022-07-10T07:04:24;19.80;51.90
9544;DHT22;30418;51.45933468;7.33152330;2022-07-10T07:20:26;19.80;51.70
9544;DHT22;30418;51.45933468;7.33152330;2022-07-10T07:24:10;19.80;51.70
9544;DHT22;30418;51.45933468;7.33152330;2022-07-10T07:28:20;19.80;51.60
9544;DHT22;30418;51.45933468;7.33152330;2022-07-10T07:31:52;19.80;51.70
9544;DHT22;30418;51.45933468;7.33152330;2022-07-10T07:35:00;19.80;51.70
9544;DHT22;30418;51.45933468;7.33152330;2022-07-10T07:38:42;19.80;51.70
9544;DHT22;30418;51.45933468;7.33152330;2022-07-10T07:42:22;19.80;52.40
9544;DHT22;30418;51.45933468;7.33152330;2022-07-10T07:46:29;19.80;51.80
9544;DHT22;30418;51.45933468;7.33152330;2022-07-10T07:49:44;19.70;51.80
9544;DHT22;30418;51.45933468;7.33152330;2022-07-10T07:53:40;19.70;51.90
9544;DHT22;30418;51.45933468;7.33152330;2022-07-10T07:58:15;19.70;52.10
9544;DHT22;30418;51.45933468;7.33152330;2022-07-10T08:02:13;19.60;52.20
9544;DHT22;30418;51.45933468;7.33152330;2022-07-10T08:05:56;19.60;52.50
9544;DHT22;30418;51.45933468;7.33152330;2022-07-10T08:10:13;19.60;52.70
9544;DHT22;30418;51.45933468;7.33152330;2022-07-10T08:33:21;19.60;52.60
9544;DHT22;30418;51.45933468;7.33152330;2022-07-10T08:36:21;19.50;52.80
9544;DHT22;30418;51.45933468;7.33152330;2022-07-10T08:39:31;19.50;53.00
9544;DHT22;30418;51.45933468;7.33152330;2022-07-10T08:43:04;19.50;53.00
9544;DHT22;30418;51.45933468;7.33152330;2022-07-10T08:47:21;19.50;53.40
9544;DHT22;30418;51.45933468;7.33152330;2022-07-10T08:54:51;19.60;53.40
9544;DHT22;30418;51.45933468;7.33152330;2022-07-10T08:58:36;19.60;53.50
9544;DHT22;30418;51.45933468;7.33152330;2022-07-10T09:02:04;19.60;53.70
9544;DHT22;30418;51.45933468;7.33152330;2022-07-10T09:05:33;19.70;53.60
9544;DHT22;30418;51.45933468;7.33152330;2022-07-10T09:09:28;19.70;53.90
9544;DHT22;30418;51.45933468;7.33152330;2022-07-10T09:13:19;19.70;54.10
9544;DHT22;30418;51.45933468;7.33152330;2022-07-10T09:17:02;19.60;54.40
9544;DHT22;30418;51.45933468;7.33152330;2022-07-10T09:25:13;19.60;55.20
9544;DHT22;30418;51.45933468;7.33152330;2022-07-10T09:47:37;19.60;56.20
9544;DHT22;30418;51.45933468;7.33152330;2022-07-10T11:16:12;20.00;59.00
9544;DHT22;30418;51.45933468;7.33152330;2022-07-10T11:19:01;20.10;58.60
9544;DHT22;30418;51.45933468;7.33152330;2022-07-10T11:22:21;20.10;58.40
9544;DHT22;30418;51.45933468;7.33152330;2022-07-10T11:25:42;20.10;58.30
9544;DHT22;30418;51.45933468;7.33152330;2022-07-10T11:28:51;20.10;58.70
9544;DHT22;30418;51.45933468;7.33152330;2022-07-10T11:31:28;20.20;58.80
9544;DHT22;30418;51.45933468;7.33152330;2022-07-10T11:34:35;20.20;58.60
9544;DHT22;30418;51.45933468;7.33152330;2022-07-10T11:37:49;20.30;58.40
9544;DHT22;30418;51.45933468;7.33152330;2022-07-10T11:40:22;20.30;58.60
9544;DHT22;30418;51.45933468;7.33152330;2022-07-10T11:42:54;20.40;58.30
9544;DHT22;30418;51.45933468;7.33152330;2022-07-10T11:45:31;20.40;58.30
9544;DHT22;30418;51.45933468;7.33152330;2022-07-10T11:48:18;20.40;58.40
9544;DHT22;30418;51.45933468;7.33152330;2022-07-10T11:50:56;20.40;58.80
9544;DHT22;30418;51.45933468;7.33152330;2022-07-10T11:53:30;20.40;58.50
9544;DHT22;30418;51.45933468;7.33152330;2022-07-10T11:56:02;20.40;58.60
9544;DHT22;30418;51.45933468;7.33152330;2022-07-10T11:58:35;20.40;58.60
9544;DHT22;30418;51.45933468;7.33152330;2022-07-10T12:01:07;20.40;58.80
9544;DHT22;30418;51.45933468;7.33152330;2022-07-10T12:03:43;20.40;59.00
9544;DHT22;30418;51.45933468;7.33152330;2022-07-10T12:06:15;20.40;59.10
9544;DHT22;30418;51.45933468;7.33152330;2022-07-10T12:08:47;20.50;59.10
9544;DHT22;30418;51.45933468;7.33152330;2022-07-10T12:11:18;20.50;59.00
9544;DHT22;30418;51.45933468;7.33152330;2022-07-10T12:13:52;20.60;59.20
9544;DHT22;30418;51.45933468;7.33152330;2022-07-10T12:16:23;20.60;59.20
9544;DHT22;30418;51.45933468;7.33152330;2022-07-10T12:19:03;20.60;59.20
9544;DHT22;30418;51.45933468;7.33152330;2022-07-10T12:21:34;20.60;59.20
9544;DHT22;30418;51.45933468;7.33152330;2022-07-10T12:24:04;20.60;59.20
9544;DHT22;30418;51.45933468;7.33152330;2022-07-10T12:26:36;20.60;59.30
9544;DHT22;30418;51.45933468;7.33152330;2022-07-10T12:29:23;20.60;59.40
9544;DHT22;30418;51.45933468;7.33152330;2022-07-10T12:31:55;20.60;59.40
9544;DHT22;30418;51.45933468;7.33152330;2022-07-10T12:34:38;20.50;59.60
9544;DHT22;30418;51.45933468;7.33152330;2022-07-10T12:37:10;20.50;60.30
9544;DHT22;30418;51.45933468;7.33152330;2022-07-10T12:39:47;20.50;60.20
9544;DHT22;30418;51.45933468;7.33152330;2022-07-10T12:42:25;20.50;60.40
9544;DHT22;30418;51.45933468;7.33152330;2022-07-10T12:45:09;20.50;60.40
9544;DHT22;30418;51.45933468;7.33152330;2022-07-10T12:47:43;20.50;61.10
9544;DHT22;30418;51.45933468;7.33152330;2022-07-10T12:50:17;20.50;60.40
9544;DHT22;30418;51.45933468;7.33152330;2022-07-10T12:52:47;20.60;60.90
9544;DHT22;30418;51.45933468;7.33152330;2022-07-10T12:55:18;20.60;60.70
9544;DHT22;30418;51.45933468;7.33152330;2022-07-10T12:57:51;20.60;60.90
9544;DHT22;30418;51.45933468;7.33152330;2022-07-10T13:00:23;20.60;61.50
9544;DHT22;30418;51.45933468;7.33152330;2022-07-10T13:03:00;20.60;61.80
9544;DHT22;30418;51.45933468;7.33152330;2022-07-10T13:05:37;20.70;62.20
9544;DHT22;30418;51.45933468;7.33152330;2022-07-10T13:08:10;20.80;62.20
9544;DHT22;30418;51.45933468;7.33152330;2022-07-10T13:10:45;20.90;61.80
9544;DHT22;30418;51.45933468;7.33152330;2022-07-10T13:13:18;20.90;61.50
9544;DHT22;30418;51.45933468;7.33152330;2022-07-10T13:15:50;20.90;61.30
9544;DHT22;30418;51.45933468;7.33152330;2022-07-10T13:18:24;20.90;60.90
9544;DHT22;30418;51.45933468;7.33152330;2022-07-10T13:21:01;21.00;61.00
9544;DHT22;30418;51.45933468;7.33152330;2022-07-10T13:23:31;20.90;61.00
9544;DHT22;30418;51.45933468;7.33152330;2022-07-10T13:25:59;20.90;60.90
9544;DHT22;30418;51.45933468;7.33152330;2022-07-10T13:28:30;20.80;61.20
9544;DHT22;30418;51.45933468;7.33152330;2022-07-10T13:30:59;20.80;61.70
9544;DHT22;30418;51.45933468;7.33152330;2022-07-10T13:33:28;20.80;62.10
9544;DHT22;30418;51.45933468;7.33152330;2022-07-10T13:36:01;20.80;63.40
9544;DHT22;30418;51.45933468;7.33152330;2022-07-10T13:38:30;20.90;62.90
9544;DHT22;30418;51.45933468;7.33152330;2022-07-10T13:41:00;20.90;63.00
9544;DHT22;30418;51.45933468;7.33152330;2022-07-10T13:43:28;21.00;62.80
9544;DHT22;30418;51.45933468;7.33152330;2022-07-10T13:45:58;21.00;62.80
9544;DHT22;30418;51.45933468;7.33152330;2022-07-10T13:48:28;21.10;62.60
9544;DHT22;30418;51.45933468;7.33152330;2022-07-10T13:50:58;21.10;62.60
9544;DHT22;30418;51.45933468;7.33152330;2022-07-10T13:53:28;21.20;62.00
9544;DHT22;30418;51.45933468;7.33152330;2022-07-10T13:55:57;21.20;61.60
9544;DHT22;30418;51.45933468;7.33152330;2022-07-10T13:58:26;21.10;61.30
9544;DHT22;30418;51.45933468;7.33152330;2022-07-10T14:00:55;21.10;61.10
9544;DHT22;30418;51.45933468;7.33152330;2022-07-10T14:03:26;21.10;61.10
9544;DHT22;30418;51.45933468;7.33152330;2022-07-10T14:05:55;21.10;61.30
9544;DHT22;30418;51.45933468;7.33152330;2022-07-10T14:08:28;21.10;61.80
9544;DHT22;30418;51.45933468;7.33152330;2022-07-10T14:10:56;21.10;62.10
9544;DHT22;30418;51.45933468;7.33152330;2022-07-10T14:13:25;21.10;62.40
9544;DHT22;30418;51.45933468;7.33152330;2022-07-10T14:15:55;21.10;62.50
9544;DHT22;30418;51.45933468;7.33152330;2022-07-10T14:18:24;21.20;62.70
9544;DHT22;30418;51.45933468;7.33152330;2022-07-10T14:21:10;21.20;62.20
9544;DHT22;30418;51.45933468;7.33152330;2022-07-10T14:23:41;21.20;62.10
9544;DHT22;30418;51.45933468;7.33152330;2022-07-10T14:26:12;21.30;61.90
9544;DHT22;30418;51.45933468;7.33152330;2022-07-10T14:28:41;21.30;61.60
9544;DHT22;30418;51.45933468;7.33152330;2022-07-10T14:31:11;21.30;61.20
9544;DHT22;30418;51.45933468;7.33152330;2022-07-10T14:33:39;21.40;60.90
9544;DHT22;30418;51.45933468;7.33152330;2022-07-10T14:36:08;21.40;60.60
9544;DHT22;30418;51.45933468;7.33152330;2022-07-10T14:38:37;21.40;60.90
9544;DHT22;30418;51.45933468;7.33152330;2022-07-10T14:41:07;21.40;60.90
9544;DHT22;30418;51.45933468;7.33152330;2022-07-10T14:43:36;21.40;60.80
9544;DHT22;30418;51.45933468;7.33152330;2022-07-10T14:46:05;21.40;60.80
9544;DHT22;30418;51.45933468;7.33152330;2022-07-10T14:48:34;21.40;60.60
9544;DHT22;30418;51.45933468;7.33152330;2022-07-10T14:51:04;21.40;60.70
9544;DHT22;30418;51.45933468;7.33152330;2022-07-10T14:53:34;21.30;60.20
9544;DHT22;30418;51.45933468;7.33152330;2022-07-10T14:56:04;21.30;60.20
9544;DHT22;30418;51.45933468;7.33152330;2022-07-10T14:58:35;21.30;60.20
9544;DHT22;30418;51.45933468;7.33152330;2022-07-10T15:01:24;21.30;60.10
9544;DHT22;30418;51.45933468;7.33152330;2022-07-10T15:03:54;21.30;60.30
9544;DHT22;30418;51.45933468;7.33152330;2022-07-10T15:06:24;21.20;60.00
9544;DHT22;30418;51.45933468;7.33152330;2022-07-10T15:08:53;21.20;59.90
9544;DHT22;30418;51.45933468;7.33152330;2022-07-10T15:11:23;21.10;60.00
9544;DHT22;30418;51.45933468;7.33152330;2022-07-10T15:13:53;21.10;60.40
9544;DHT22;30418;51.45933468;7.33152330;2022-07-10T15:16:26;21.10;60.50
9544;DHT22;30418;51.45933468;7.33152330;2022-07-10T15:18:55;21.10;60.50
9544;DHT22;30418;51.45933468;7.33152330;2022-07-10T15:21:25;21.00;60.60
9544;DHT22;30418;51.45933468;7.33152330;2022-07-10T15:23:55;21.00;60.90
9544;DHT22;30418;51.45933468;7.33152330;2022-07-10T15:26:25;21.10;61.10
9544;DHT22;30418;51.45933468;7.33152330;2022-07-10T15:28:54;21.10;61.60
9544;DHT22;30418;51.45933468;7.33152330;2022-07-10T15:31:26;21.10;61.50
9544;DHT22;30418;51.45933468;7.33152330;2022-07-10T15:33:55;21.20;61.80
9544;DHT22;30418;51.45933468;7.33152330;2022-07-10T15:36:24;21.20;61.80
9544;DHT22;30418;51.45933468;7.33152330;2022-07-10T15:38:52;21.30;61.90
9544;DHT22;30418;51.45933468;7.33152330;2022-07-10T15:41:21;21.40;62.00
9544;DHT22;30418;51.45933468;7.33152330;2022-07-10T15:43:51;21.40;61.80
9544;DHT22;30418;51.45933468;7.33152330;2022-07-10T15:46:20;21.40;61.70
9544;DHT22;30418;51.45933468;7.33152330;2022-07-10T15:48:48;21.50;61.50
9544;DHT22;30418;51.45933468;7.33152330;2022-07-10T15:51:17;21.50;61.40
9544;DHT22;30418;51.45933468;7.33152330;2022-07-10T15:53:46;21.50;61.50
9544;DHT22;30418;51.45933468;7.33152330;2022-07-10T15:56:14;21.50;61.50
9544;DHT22;30418;51.45933468;7.33152330;2022-07-10T15:58:43;21.50;61.40
9544;DHT22;30418;51.45933468;7.33152330;2022-07-10T16:01:13;21.50;61.50
9544;DHT22;30418;51.45933468;7.33152330;2022-07-10T16:03:43;21.50;61.40
9544;DHT22;30418;51.45933468;7.33152330;2022-07-10T16:06:12;21.50;61.40
9544;DHT22;30418;51.45933468;7.33152330;2022-07-10T16:08:40;21.50;61.40
9544;DHT22;30418;51.45933468;7.33152330;2022-07-10T16:11:10;21.50;61.70
9544;DHT22;30418;51.45933468;7.33152330;2022-07-10T16:13:39;21.40;61.80
9544;DHT22;30418;51.45933468;7.33152330;2022-07-10T16:16:08;21.40;62.10
9544;DHT22;30418;51.45933468;7.33152330;2022-07-10T16:18:38;21.40;62.20
9544;DHT22;30418;51.45933468;7.33152330;2022-07-10T16:21:07;21.40;62.30
9544;DHT22;30418;51.45933468;7.33152330;2022-07-10T16:23:42;21.40;62.40
9544;DHT22;30418;51.45933468;7.33152330;2022-07-10T16:26:11;21.40;62.60
9544;DHT22;30418;51.45933468;7.33152330;2022-07-10T16:28:40;21.40;62.70
9544;DHT22;30418;51.45933468;7.33152330;2022-07-10T16:31:08;21.40;62.80
9544;DHT22;30418;51.45933468;7.33152330;2022-07-10T16:33:39;21.50;62.80
9544;DHT22;30418;51.45933468;7.33152330;2022-07-10T16:36:08;21.50;62.80
9544;DHT22;30418;51.45933468;7.33152330;2022-07-10T16:38:37;21.50;62.60
9544;DHT22;30418;51.45933468;7.33152330;2022-07-10T16:41:06;21.50;62.50
9544;DHT22;30418;51.45933468;7.33152330;2022-07-10T16:43:34;21.50;62.50
9544;DHT22;30418;51.45933468;7.33152330;2022-07-10T16:46:03;21.50;62.60
9544;DHT22;30418;51.45933468;7.33152330;2022-07-10T16:48:32;21.50;62.60
9544;DHT22;30418;51.45933468;7.33152330;2022-07-10T16:51:03;21.50;62.80
9544;DHT22;30418;51.45933468;7.33152330;2022-07-10T16:53:38;21.50;62.70
9544;DHT22;30418;51.45933468;7.33152330;2022-07-10T16:56:27;21.50;62.60
9544;DHT22;30418;51.45933468;7.33152330;2022-07-10T16:58:56;21.50;62.50
9544;DHT22;30418;51.45933468;7.33152330;2022-07-10T17:01:24;21.50;62.50
9544;DHT22;30418;51.45933468;7.33152330;2022-07-10T17:03:53;21.50;62.60
9544;DHT22;30418;51.45933468;7.33152330;2022-07-10T17:06:24;21.50;62.70
9544;DHT22;30418;51.45933468;7.33152330;2022-07-10T17:08:53;21.50;62.80
9544;DHT22;30418;51.45933468;7.33152330;2022-07-10T17:11:21;21.50;62.80
9544;DHT22;30418;51.45933468;7.33152330;2022-07-10T17:13:51;21.50;62.70
9544;DHT22;30418;51.45933468;7.33152330;2022-07-10T17:16:20;21.50;62.70
9544;DHT22;30418;51.45933468;7.33152330;2022-07-10T17:18:49;21.50;62.60
9544;DHT22;30418;51.45933468;7.33152330;2022-07-10T17:21:17;21.50;62.70
9544;DHT22;30418;51.45933468;7.33152330;2022-07-10T17:24:07;21.50;62.60
9544;DHT22;30418;51.45933468;7.33152330;2022-07-10T17:26:36;21.50;62.90
9544;DHT22;30418;51.45933468;7.33152330;2022-07-10T17:29:05;21.50;62.10
9544;DHT22;30418;51.45933468;7.33152330;2022-07-10T17:31:33;21.50;62.00
9544;DHT22;30418;51.45933468;7.33152330;2022-07-10T17:34:02;21.50;61.90
9544;DHT22;30418;51.45933468;7.33152330;2022-07-10T17:36:31;21.50;61.50
9544;DHT22;30418;51.45933468;7.33152330;2022-07-10T17:39:00;21.50;61.50
9544;DHT22;30418;51.45933468;7.33152330;2022-07-10T17:41:30;21.50;61.90
9544;DHT22;30418;51.45933468;7.33152330;2022-07-10T17:43:59;21.50;61.80
9544;DHT22;30418;51.45933468;7.33152330;2022-07-10T17:46:28;21.50;61.70
9544;DHT22;30418;51.45933468;7.33152330;2022-07-10T17:48:57;21.50;61.80
9544;DHT22;30418;51.45933468;7.33152330;2022-07-10T17:51:26;21.50;61.50
9544;DHT22;30418;51.45933468;7.33152330;2022-07-10T17:53:55;21.50;61.40
9544;DHT22;30418;51.45933468;7.33152330;2022-07-10T17:56:24;21.50;61.40
9544;DHT22;30418;51.45933468;7.33152330;2022-07-10T17:58:54;21.60;61.60
9544;DHT22;30418;51.45933468;7.33152330;2022-07-10T18:01:22;21.50;61.50
9544;DHT22;30418;51.45933468;7.33152330;2022-07-10T18:03:51;21.60;61.40
9544;DHT22;30418;51.45933468;7.33152330;2022-07-10T18:06:20;21.50;61.20
9544;DHT22;30418;51.45933468;7.33152330;2022-07-10T18:08:49;21.50;61.40
9544;DHT22;30418;51.45933468;7.33152330;2022-07-10T18:11:20;21.50;61.20
9544;DHT22;30418;51.45933468;7.33152330;2022-07-10T18:13:50;21.50;60.90
9544;DHT22;30418;51.45933468;7.33152330;2022-07-10T18:16:21;21.50;60.90
9544;DHT22;30418;51.45933468;7.33152330;2022-07-10T18:18:52;21.50;60.60
9544;DHT22;30418;51.45933468;7.33152330;2022-07-10T18:21:22;21.50;60.80
9544;DHT22;30418;51.45933468;7.33152330;2022-07-10T18:23:51;21.50;60.60
9544;DHT22;30418;51.45933468;7.33152330;2022-07-10T18:26:27;21.50;60.60
9544;DHT22;30418;51.45933468;7.33152330;2022-07-10T18:28:56;21.50;60.60
9544;DHT22;30418;51.45933468;7.33152330;2022-07-10T18:31:27;21.50;60.70
9544;DHT22;30418;51.45933468;7.33152330;2022-07-10T18:33:56;21.50;60.80
9544;DHT22;30418;51.45933468;7.33152330;2022-07-10T18:36:42;21.50;60.90
9544;DHT22;30418;51.45933468;7.33152330;2022-07-10T18:39:11;21.50;60.50
9544;DHT22;30418;51.45933468;7.33152330;2022-07-10T18:41:44;21.50;60.50
9544;DHT22;30418;51.45933468;7.33152330;2022-07-10T18:44:13;21.50;60.60
9544;DHT22;30418;51.45933468;7.33152330;2022-07-10T18:46:43;21.50;60.50
9544;DHT22;30418;51.45933468;7.33152330;2022-07-10T18:49:12;21.50;60.50
9544;DHT22;30418;51.45933468;7.33152330;2022-07-10T18:51:41;21.50;60.30
9544;DHT22;30418;51.45933468;7.33152330;2022-07-10T18:54:10;21.50;60.70
9544;DHT22;30418;51.45933468;7.33152330;2022-07-10T18:56:40;21.50;60.10
9544;DHT22;30418;51.45933468;7.33152330;2022-07-10T18:59:08;21.50;60.00
9544;DHT22;30418;51.45933468;7.33152330;2022-07-10T19:01:37;21.50;60.10
9544;DHT22;30418;51.45933468;7.33152330;2022-07-10T19:04:07;21.40;60.20
9544;DHT22;30418;51.45933468;7.33152330;2022-07-10T19:06:36;21.40;60.00
9544;DHT22;30418;51.45933468;7.33152330;2022-07-10T19:09:04;21.40;60.30
9544;DHT22;30418;51.45933468;7.33152330;2022-07-10T19:11:33;21.40;60.50
9544;DHT22;30418;51.45933468;7.33152330;2022-07-10T19:14:02;21.40;60.80
9544;DHT22;30418;51.45933468;7.33152330;2022-07-10T19:16:31;21.50;61.00
9544;DHT22;30418;51.45933468;7.33152330;2022-07-10T19:19:00;21.50;61.00
9544;DHT22;30418;51.45933468;7.33152330;2022-07-10T19:21:30;21.50;61.00
9544;DHT22;30418;51.45933468;7.33152330;2022-07-10T19:23:59;21.50;61.00
9544;DHT22;30418;51.45933468;7.33152330;2022-07-10T19:26:28;21.50;61.10
9544;DHT22;30418;51.45933468;7.33152330;2022-07-10T19:28:56;21.50;61.10
9544;DHT22;30418;51.45933468;7.33152330;2022-07-10T19:31:25;21.50;61.90
9544;DHT22;30418;51.45933468;7.33152330;2022-07-10T19:33:54;21.50;61.10
9544;DHT22;30418;51.45933468;7.33152330;2022-07-10T19:36:22;21.50;61.00
9544;DHT22;30418;51.45933468;7.33152330;2022-07-10T19:38:52;21.50;61.00
9544;DHT22;30418;51.45933468;7.33152330;2022-07-10T19:41:21;21.50;60.80
9544;DHT22;30418;51.45933468;7.33152330;2022-07-10T19:43:50;21.50;60.90
9544;DHT22;30418;51.45933468;7.33152330;2022-07-10T19:46:25;21.50;61.00
9544;DHT22;30418;51.45933468;7.33152330;2022-07-10T19:49:08;21.50;61.20
9544;DHT22;30418;51.45933468;7.33152330;2022-07-10T19:52:12;21.50;61.20
9544;DHT22;30418;51.45933468;7.33152330;2022-07-10T19:55:04;21.50;61.40
9544;DHT22;30418;51.45933468;7.33152330;2022-07-10T19:58:53;21.50;61.40
9544;DHT22;30418;51.45933468;7.33152330;2022-07-10T20:01:47;21.50;61.50
9544;DHT22;30418;51.45933468;7.33152330;2022-07-10T20:04:31;21.50;61.50
9544;DHT22;30418;51.45933468;7.33152330;2022-07-10T20:07:07;21.50;61.30
9544;DHT22;30418;51.45933468;7.33152330;2022-07-10T20:09:50;21.50;61.40
9544;DHT22;30418;51.45933468;7.33152330;2022-07-10T20:12:29;21.50;61.30
9544;DHT22;30418;51.45933468;7.33152330;2022-07-10T20:15:06;21.40;61.20
9544;DHT22;30418;51.45933468;7.33152330;2022-07-10T20:18:19;21.40;61.30
9544;DHT22;30418;51.45933468;7.33152330;2022-07-10T20:24:51;21.40;61.30
9544;DHT22;30418;51.45933468;7.33152330;2022-07-10T20:28:00;21.40;61.30
9544;DHT22;30418;51.45933468;7.33152330;2022-07-10T20:31:15;21.40;61.30
9544;DHT22;30418;51.45933468;7.33152330;2022-07-10T20:34:20;21.30;61.20
9544;DHT22;30418;51.45933468;7.33152330;2022-07-10T20:37:15;21.40;61.30
9544;DHT22;30418;51.45933468;7.33152330;2022-07-10T20:40:01;21.40;61.30
9544;DHT22;30418;51.45933468;7.33152330;2022-07-10T20:42:30;21.30;61.20
9544;DHT22;30418;51.45933468;7.33152330;2022-07-10T20:45:00;21.30;61.20
9544;DHT22;30418;51.45933468;7.33152330;2022-07-10T20:47:28;21.30;61.20
9544;DHT22;30418;51.45933468;7.33152330;2022-07-10T20:49:57;21.30;61.30
9544;DHT22;30418;51.45933468;7.33152330;2022-07-10T20:52:27;21.30;61.30
9544;DHT22;30418;51.45933468;7.33152330;2022-07-10T20:54:56;21.30;61.30
9544;DHT22;30418;51.45933468;7.33152330;2022-07-10T20:57:24;21.30;61.40
9544;DHT22;30418;51.45933468;7.33152330;2022-07-10T20:59:53;21.30;61.50
9544;DHT22;30418;51.45933468;7.33152330;2022-07-10T21:02:24;21.30;61.70
9544;DHT22;30418;51.45933468;7.33152330;2022-07-10T21:04:52;21.30;61.80
9544;DHT22;30418;51.45933468;7.33152330;2022-07-10T21:07:21;21.30;61.70
9544;DHT22;30418;51.45933468;7.33152330;2022-07-10T21:09:52;21.30;61.90
9544;DHT22;30418;51.45933468;7.33152330;2022-07-10T21:12:21;21.30;61.80
9544;DHT22;30418;51.45933468;7.33152330;2022-07-10T21:14:49;21.30;61.80
9544;DHT22;30418;51.45933468;7.33152330;2022-07-10T21:17:18;21.30;61.90
9544;DHT22;30418;51.45933468;7.33152330;2022-07-10T21:19:48;21.30;62.00
9544;DHT22;30418;51.45933468;7.33152330;2022-07-10T21:22:17;21.30;62.00
9544;DHT22;30418;51.45933468;7.33152330;2022-07-10T21:24:45;21.30;61.90
9544;DHT22;30418;51.45933468;7.33152330;2022-07-10T21:27:14;21.30;62.00
9544;DHT22;30418;51.45933468;7.33152330;2022-07-10T21:29:43;21.30;62.10
9544;DHT22;30418;51.45933468;7.33152330;2022-07-10T21:32:11;21.30;62.10
9544;DHT22;30418;51.45933468;7.33152330;2022-07-10T21:34:40;21.30;62.20
9544;DHT22;30418;51.45933468;7.33152330;2022-07-10T21:37:10;21.30;62.40
9544;DHT22;30418;51.45933468;7.33152330;2022-07-10T21:39:39;21.30;62.50
9544;DHT22;30418;51.45933468;7.33152330;2022-07-10T21:42:07;21.30;62.40
9544;DHT22;30418;51.45933468;7.33152330;2022-07-10T21:44:36;21.30;62.50
9544;DHT22;30418;51.45933468;7.33152330;2022-07-10T21:47:05;21.30;62.50
9544;DHT22;30418;51.45933468;7.33152330;2022-07-10T21:49:34;21.30;62.60
9544;DHT22;30418;51.45933468;7.33152330;2022-07-10T21:52:03;21.30;62.60
9544;DHT22;30418;51.45933468;7.33152330;2022-07-10T21:54:35;21.30;62.70
9544;DHT22;30418;51.45933468;7.33152330;2022-07-10T21:57:08;21.30;62.80